createdAt,value
2017-11-08T00:01:17.823Z,5.40
2017-11-08T00:03:45.489Z,5.80
2017-11-08T00:06:13.317Z,5.68
2017-11-08T00:08:40.218Z,7.22
2017-11-08T00:11:07.117Z,5.68
2017-11-08T00:13:34.018Z,6.18
2017-11-08T00:16:01.118Z,5.47
2017-11-08T00:18:28.952Z,5.78
2017-11-08T00:20:56.290Z,6.10
2017-11-08T00:23:23.201Z,5.18
2017-11-08T00:25:50.887Z,5.97
2017-11-08T00:28:18.721Z,5.28
2017-11-08T00:30:47.319Z,4.32
2017-11-08T00:33:15.125Z,4.87
2017-11-08T00:35:42.042Z,5.05
2017-11-08T00:38:08.937Z,4.60
2017-11-08T00:40:36.219Z,4.55
2017-11-08T00:43:04.897Z,4.62
2017-11-08T00:45:32.188Z,6.22
2017-11-08T00:47:59.092Z,3.80
2017-11-08T00:50:26.002Z,5.30
2017-11-08T00:52:52.894Z,5.43
2017-11-08T00:55:20.569Z,5.70
2017-11-08T00:57:47.470Z,5.15
2017-11-08T01:00:14.373Z,5.03
2017-11-08T01:02:41.284Z,5.05
2017-11-08T01:05:09.779Z,5.97
2017-11-08T01:07:36.756Z,4.53
2017-11-08T01:10:03.659Z,5.18
2017-11-08T01:12:30.583Z,6.00
2017-11-08T01:14:57.496Z,4.97
2017-11-08T01:17:24.391Z,4.97
2017-11-08T01:19:52.074Z,4.97
2017-11-08T01:22:18.999Z,7.22
2017-11-08T01:24:46.662Z,5.40
2017-11-08T01:27:13.543Z,4.72
2017-11-08T01:29:41.166Z,4.78
2017-11-08T01:32:09.757Z,6.20
2017-11-08T01:34:36.674Z,5.07
2017-11-08T01:37:04.976Z,5.53
2017-11-08T01:39:31.892Z,4.32
2017-11-08T01:41:58.778Z,3.92
2017-11-08T01:44:25.712Z,4.43
2017-11-08T01:46:53.627Z,5.53
2017-11-08T01:49:20.552Z,6.20
2017-11-08T01:51:47.452Z,5.37
2017-11-08T01:54:18.084Z,5.22
2017-11-08T01:56:47.672Z,4.78
2017-11-08T01:59:15.528Z,5.40
2017-11-08T02:01:42.426Z,4.85
2017-11-08T02:04:09.337Z,4.90
2017-11-08T02:06:37.003Z,4.75
2017-11-08T02:09:04.685Z,4.90
2017-11-08T02:11:33.004Z,4.65
2017-11-08T02:13:59.908Z,5.62
2017-11-08T02:16:26.823Z,4.40
2017-11-08T02:18:54.494Z,5.07
2017-11-08T02:21:22.168Z,5.45
2017-11-08T02:23:50.030Z,4.45
2017-11-08T02:26:16.926Z,5.05
2017-11-08T02:28:43.850Z,5.00
2017-11-08T02:31:10.785Z,4.95
2017-11-08T02:33:38.711Z,5.10
2017-11-08T02:36:06.385Z,4.95
2017-11-08T02:38:33.307Z,4.78
2017-11-08T02:41:00.214Z,5.20
2017-11-08T02:43:27.137Z,4.18
2017-11-08T02:45:54.037Z,5.62
2017-11-08T02:48:21.927Z,5.30
2017-11-08T02:50:48.837Z,5.37
2017-11-08T02:53:15.742Z,6.50
2017-11-08T02:55:42.639Z,4.93
2017-11-08T02:58:09.530Z,6.15
2017-11-08T03:00:37.197Z,5.70
2017-11-08T03:03:04.334Z,6.90
2017-11-08T03:05:31.249Z,5.75
2017-11-08T03:07:58.901Z,7.68
2017-11-08T03:10:26.743Z,6.80
2017-11-08T03:12:54.226Z,7.50
2017-11-08T03:15:22.309Z,8.02
2017-11-08T03:17:50.026Z,8.30
2017-11-08T03:20:17.909Z,7.05
2017-11-08T03:22:45.562Z,7.62
2017-11-08T03:25:13.254Z,9.15
2017-11-08T03:27:40.171Z,7.95
2017-11-08T03:30:08.582Z,7.47
2017-11-08T03:32:35.622Z,8.20
2017-11-08T03:35:05.886Z,8.05
2017-11-08T03:37:32.784Z,10.00
2017-11-08T03:39:59.723Z,9.15
2017-11-08T03:42:26.657Z,10.13
2017-11-08T03:44:54.344Z,10.40
2017-11-08T03:47:22.119Z,10.80
2017-11-08T03:49:49.036Z,11.10
2017-11-08T03:52:17.812Z,11.43
2017-11-08T03:54:45.497Z,12.15
2017-11-08T03:57:15.091Z,11.23
2017-11-08T03:59:54.461Z,12.95
2017-11-08T04:02:21.362Z,11.48
2017-11-08T04:04:50.052Z,14.15
2017-11-08T04:07:16.952Z,14.57
2017-11-08T04:09:44.843Z,13.95
2017-11-08T04:12:11.737Z,15.77
2017-11-08T04:14:40.730Z,15.43
2017-11-08T04:17:07.617Z,13.90
2017-11-08T04:19:34.824Z,13.30
2017-11-08T04:22:01.718Z,14.65
2017-11-08T04:24:28.618Z,14.25
2017-11-08T04:26:56.273Z,15.68
2017-11-08T04:29:23.176Z,13.73
2017-11-08T04:31:50.061Z,13.80
2017-11-08T04:34:16.965Z,15.85
2017-11-08T04:36:43.861Z,16.70
2017-11-08T04:39:10.777Z,15.43
2017-11-08T04:41:39.545Z,16.73
2017-11-08T04:44:06.714Z,13.57
2017-11-08T04:46:33.612Z,16.45
2017-11-08T04:49:00.512Z,15.00
2017-11-08T04:51:27.413Z,14.38
2017-11-08T04:53:54.328Z,13.95
2017-11-08T04:56:21.222Z,14.75
2017-11-08T04:58:48.150Z,13.52
2017-11-08T05:01:15.059Z,14.30
2017-11-08T05:03:41.956Z,14.73
2017-11-08T05:06:08.843Z,14.60
2017-11-08T05:08:35.761Z,14.07
2017-11-08T05:11:02.648Z,14.20
2017-11-08T05:13:29.554Z,17.12
2017-11-08T05:15:56.446Z,14.80
2017-11-08T05:18:23.357Z,17.15
2017-11-08T05:20:51.015Z,16.42
2017-11-08T05:23:18.692Z,16.02
2017-11-08T05:25:46.525Z,17.15
2017-11-08T05:28:13.437Z,14.87
2017-11-08T05:30:40.330Z,17.67
2017-11-08T05:33:07.980Z,18.35
2017-11-08T05:35:35.651Z,15.82
2017-11-08T05:38:03.323Z,17.30
2017-11-08T05:40:30.974Z,19.67
2017-11-08T05:42:58.658Z,17.90
2017-11-08T05:45:25.542Z,17.50
2017-11-08T05:47:52.457Z,19.08
2017-11-08T05:50:19.352Z,18.02
2017-11-08T05:52:46.265Z,17.00
2017-11-08T05:55:13.154Z,17.25
2017-11-08T05:57:40.837Z,17.02
2017-11-08T06:00:07.743Z,18.73
2017-11-08T06:02:34.633Z,16.67
2017-11-08T06:05:01.525Z,17.98
2017-11-08T06:07:28.576Z,18.60
2017-11-08T06:09:55.476Z,19.08
2017-11-08T06:12:23.269Z,17.50
2017-11-08T06:14:50.185Z,19.10
2017-11-08T06:17:17.074Z,18.12
2017-11-08T06:19:43.984Z,19.15
2017-11-08T06:22:10.883Z,21.15
2017-11-08T06:24:39.553Z,19.35
2017-11-08T06:27:06.448Z,20.67
2017-11-08T06:29:33.360Z,20.05
2017-11-08T06:32:01.014Z,19.85
2017-11-08T06:34:27.924Z,19.85
2017-11-08T06:36:54.821Z,19.45
2017-11-08T06:39:21.745Z,21.58
2017-11-08T06:41:49.409Z,20.95
2017-11-08T06:44:17.085Z,21.50
2017-11-08T06:46:43.977Z,21.60
2017-11-08T06:49:10.885Z,21.40
2017-11-08T06:51:37.786Z,20.92
2017-11-08T06:54:05.465Z,20.70
2017-11-08T06:56:32.406Z,22.00
2017-11-08T06:59:00.061Z,21.12
2017-11-08T07:01:28.750Z,20.48
2017-11-08T07:03:55.645Z,21.92
2017-11-08T07:06:22.545Z,22.95
2017-11-08T07:08:49.481Z,21.12
2017-11-08T07:11:17.152Z,21.37
2017-11-08T07:13:44.045Z,22.90
2017-11-08T07:16:10.945Z,23.15
2017-11-08T07:18:38.773Z,21.65
2017-11-08T07:21:08.710Z,22.95
2017-11-08T07:23:36.545Z,21.98
2017-11-08T07:26:03.447Z,22.55
2017-11-08T07:28:30.354Z,22.45
2017-11-08T07:30:58.034Z,22.55
2017-11-08T07:33:24.925Z,21.73
2017-11-08T07:35:51.844Z,25.75
2017-11-08T07:38:18.763Z,26.45
2017-11-08T07:40:47.409Z,21.92
2017-11-08T07:43:15.290Z,20.62
2017-11-08T07:45:42.188Z,23.85
2017-11-08T07:48:09.092Z,21.77
2017-11-08T07:50:36.754Z,22.20
2017-11-08T07:53:04.451Z,23.02
2017-11-08T07:55:31.346Z,24.20
2017-11-08T07:57:59.258Z,53.30
2017-11-08T08:00:26.150Z,29.17
2017-11-08T08:02:54.734Z,23.85
2017-11-08T08:05:21.637Z,24.12
2017-11-08T08:07:49.549Z,24.02
2017-11-08T08:10:16.437Z,24.52
2017-11-08T08:12:43.390Z,24.75
2017-11-08T08:15:11.196Z,24.60
2017-11-08T08:17:38.100Z,27.67
2017-11-08T08:20:06.009Z,23.65
2017-11-08T08:22:32.923Z,28.30
2017-11-08T08:24:59.860Z,27.92
2017-11-08T08:27:26.754Z,27.05
2017-11-08T08:29:54.415Z,27.73
2017-11-08T08:32:23.093Z,26.03
2017-11-08T08:34:50.958Z,26.55
2017-11-08T08:37:17.861Z,29.13
2017-11-08T08:39:44.755Z,26.00
2017-11-08T08:42:11.681Z,25.23
2017-11-08T08:44:38.587Z,28.12
2017-11-08T08:47:05.492Z,28.40
2017-11-08T08:49:32.381Z,27.93
2017-11-08T08:52:01.222Z,28.30
2017-11-08T08:54:31.465Z,28.20
2017-11-08T08:56:58.389Z,27.00
2017-11-08T08:59:25.274Z,28.10
2017-11-08T09:01:52.168Z,28.37
2017-11-08T09:04:19.057Z,26.00
2017-11-08T09:06:45.959Z,25.83
2017-11-08T09:09:12.877Z,26.83
2017-11-08T09:11:39.774Z,27.60
2017-11-08T09:14:06.665Z,26.20
2017-11-08T09:16:33.561Z,27.73
2017-11-08T09:19:01.377Z,28.03
2017-11-08T09:21:28.288Z,27.90
2017-11-08T09:23:55.180Z,30.63
2017-11-08T09:26:22.082Z,26.70
2017-11-08T09:28:48.962Z,29.43
2017-11-08T09:31:15.845Z,28.67
2017-11-08T09:33:42.740Z,29.17
2017-11-08T09:36:10.601Z,29.13
2017-11-08T09:38:37.501Z,30.90
2017-11-08T09:41:06.337Z,30.30
2017-11-08T09:43:33.242Z,29.60
2017-11-08T09:46:00.137Z,30.07
2017-11-08T09:48:27.813Z,28.70
2017-11-08T09:50:55.475Z,31.10
2017-11-08T09:53:23.150Z,28.60
2017-11-08T09:55:50.804Z,27.57
2017-11-08T09:58:17.709Z,30.27
2017-11-08T10:00:44.598Z,27.83
2017-11-08T10:03:12.273Z,30.10
2017-11-08T10:05:39.173Z,30.20
2017-11-08T10:08:06.101Z,30.33
2017-11-08T10:10:33.000Z,31.13
2017-11-08T10:12:59.916Z,31.97
2017-11-08T10:15:26.816Z,30.80
2017-11-08T10:17:53.718Z,29.73
2017-11-08T10:20:23.289Z,32.30
2017-11-08T10:22:50.198Z,31.37
2017-11-08T10:25:17.093Z,32.50
2017-11-08T10:27:45.986Z,34.20
2017-11-08T10:30:12.877Z,31.17
2017-11-08T10:32:39.777Z,30.30
2017-11-08T10:35:08.448Z,32.13
2017-11-08T10:37:35.357Z,28.67
2017-11-08T10:40:02.269Z,31.47
2017-11-08T10:42:29.379Z,30.10
2017-11-08T10:44:56.826Z,33.07
2017-11-08T10:47:25.497Z,29.23
2017-11-08T10:49:52.402Z,31.50
2017-11-08T10:52:19.321Z,31.40
2017-11-08T10:54:46.219Z,30.20
2017-11-08T10:57:15.128Z,32.40
2017-11-08T10:59:42.811Z,29.93
2017-11-08T11:02:11.670Z,29.70
2017-11-08T11:04:39.526Z,30.07
2017-11-08T11:07:07.401Z,29.10
2017-11-08T11:09:35.271Z,28.20
2017-11-08T11:12:02.178Z,30.07
2017-11-08T11:14:29.071Z,29.43
2017-11-08T11:16:56.753Z,30.63
2017-11-08T11:19:24.412Z,29.03
2017-11-08T11:21:51.319Z,29.90
2017-11-08T11:24:19.187Z,28.67
2017-11-08T11:26:47.789Z,29.10
2017-11-08T11:29:15.438Z,28.83
2017-11-08T11:31:42.380Z,29.20
2017-11-08T11:34:09.303Z,28.97
2017-11-08T11:36:36.202Z,28.47
2017-11-08T11:39:03.878Z,29.80
2017-11-08T11:41:31.696Z,29.13
2017-11-08T11:43:58.606Z,29.40
2017-11-08T11:46:25.505Z,30.67
2017-11-08T11:48:53.178Z,27.37
2017-11-08T11:51:20.834Z,29.00
2017-11-08T11:53:48.547Z,30.20
2017-11-08T11:56:20.394Z,25.97
2017-11-08T11:58:47.300Z,28.40
2017-11-08T12:01:15.975Z,27.90
2017-11-08T12:03:42.886Z,26.40
2017-11-08T12:06:09.778Z,28.13
2017-11-08T12:08:37.669Z,28.60
2017-11-08T12:11:04.554Z,31.63
2017-11-08T12:13:31.443Z,27.90
2017-11-08T12:16:00.286Z,26.67
2017-11-08T12:18:27.179Z,27.97
2017-11-08T12:20:54.082Z,26.50
2017-11-08T12:23:20.998Z,28.30
2017-11-08T12:25:47.898Z,26.73
2017-11-08T12:28:15.583Z,26.87
2017-11-08T12:30:43.447Z,27.60
2017-11-08T12:33:10.341Z,27.37
2017-11-08T12:35:38.151Z,26.20
2017-11-08T12:38:05.986Z,25.63
2017-11-08T12:40:33.251Z,27.13
2017-11-08T12:43:00.926Z,30.10
2017-11-08T12:45:28.779Z,28.40
2017-11-08T12:47:55.700Z,28.30
2017-11-08T12:50:22.611Z,29.37
2017-11-08T12:52:49.494Z,26.77
2017-11-08T12:55:17.371Z,25.57
2017-11-08T12:57:45.476Z,29.17
2017-11-08T13:00:14.051Z,28.67
2017-11-08T13:02:41.097Z,28.60
2017-11-08T13:05:08.670Z,28.23
2017-11-08T13:07:35.565Z,28.90
2017-11-08T13:10:02.554Z,27.30
2017-11-08T13:12:30.214Z,27.67
2017-11-08T13:14:57.118Z,25.67
2017-11-08T13:17:24.047Z,29.07
2017-11-08T13:19:50.955Z,27.73
2017-11-08T13:22:17.845Z,27.73
2017-11-08T13:24:46.374Z,26.63
2017-11-08T13:27:14.931Z,30.23
2017-11-08T13:29:44.514Z,29.10
2017-11-08T13:32:11.574Z,29.33
2017-11-08T13:34:38.594Z,30.93
2017-11-08T13:37:05.528Z,30.43
2017-11-08T13:39:32.749Z,30.50
2017-11-08T13:42:00.587Z,31.83
2017-11-08T13:44:27.486Z,32.30
2017-11-08T13:46:54.403Z,32.93
2017-11-08T13:49:22.250Z,31.03
2017-11-08T13:51:51.834Z,31.97
2017-11-08T13:54:18.737Z,33.73
2017-11-08T13:56:45.625Z,31.50
2017-11-08T13:59:12.539Z,31.40
2017-11-08T14:01:39.484Z,32.40
2017-11-08T14:04:06.406Z,34.13
2017-11-08T14:06:33.312Z,31.60
2017-11-08T14:09:00.206Z,33.83
2017-11-08T14:11:27.133Z,33.77
2017-11-08T14:13:54.046Z,34.67
2017-11-08T14:16:20.938Z,34.20
2017-11-08T14:18:47.843Z,32.87
2017-11-08T14:21:15.508Z,31.80
2017-11-08T14:23:43.170Z,36.87
2017-11-08T14:26:10.817Z,34.80
2017-11-08T14:28:37.759Z,34.57
2017-11-08T14:31:04.651Z,34.53
2017-11-08T14:33:31.557Z,37.40
2017-11-08T14:35:59.232Z,36.47
2017-11-08T14:38:26.922Z,33.10
2017-11-08T14:40:53.826Z,36.80
2017-11-08T14:43:20.734Z,31.80
2017-11-08T14:45:48.618Z,31.63
2017-11-08T14:48:16.497Z,33.37
2017-11-08T14:50:43.430Z,35.53
2017-11-08T14:53:10.335Z,30.80
2017-11-08T14:55:38.138Z,32.17
2017-11-08T14:58:05.047Z,33.63
2017-11-08T15:00:31.978Z,30.07
2017-11-08T15:03:03.719Z,31.00
2017-11-08T15:05:31.586Z,31.83
2017-11-08T15:07:58.482Z,29.33
2017-11-08T15:10:28.655Z,30.03
2017-11-08T15:12:55.542Z,30.50
2017-11-08T15:15:25.511Z,30.43
2017-11-08T15:17:53.179Z,29.20
2017-11-08T15:20:20.100Z,31.40
2017-11-08T15:22:47.772Z,29.23
2017-11-08T15:25:14.687Z,29.77
2017-11-08T15:27:42.494Z,29.60
2017-11-08T15:30:09.447Z,29.30
2017-11-08T15:32:36.343Z,31.00
2017-11-08T15:35:03.303Z,28.90
2017-11-08T15:37:30.963Z,28.90
2017-11-08T15:39:58.665Z,29.30
2017-11-08T15:42:26.653Z,30.00
2017-11-08T15:44:53.566Z,30.33
2017-11-08T15:47:20.465Z,28.50
2017-11-08T15:49:47.378Z,29.27
2017-11-08T15:52:14.275Z,31.67
2017-11-08T15:54:41.200Z,28.27
2017-11-08T15:57:08.111Z,26.77
2017-11-08T15:59:35.014Z,26.97
2017-11-08T16:02:02.672Z,27.50
2017-11-08T16:04:30.354Z,26.73
2017-11-08T16:06:58.174Z,27.67
2017-11-08T16:09:25.079Z,28.10
2017-11-08T16:11:52.014Z,33.47
2017-11-08T16:14:18.953Z,30.13
2017-11-08T16:16:45.867Z,29.10
2017-11-08T16:19:12.753Z,28.00
2017-11-08T16:21:39.650Z,31.10
2017-11-08T16:24:06.543Z,30.47
2017-11-08T16:26:33.466Z,31.73
2017-11-08T16:29:00.419Z,31.30
